Time;durP1;ratioP1;P1;durP2;ratioP2;P2;SDS_P1;SDS_P2;PMS_P1;PMS_P2;Temp;Humidity;BMP_temperature;BMP_pressure;BME280_temperature;BME280_humidity;BME280_pressure;Samples;Min_cycle;Max_cycle;Signal;HPM_P1;HPM_P2
2022/01/08 00:01:32;;;;;;;3.73;1.70;;;;;;;4.56;84.52;97685.72;4848200;29;20683;-85
2022/01/08 00:04:01;;;;;;;3.00;1.20;;;;;;;4.52;83.97;97680.81;4851642;29;20646;-85
2022/01/08 00:06:29;;;;;;;2.47;1.40;;;;;;;4.47;82.81;97680.22;4852180;29;20678;-86
2022/01/08 00:08:58;;;;;;;2.50;1.50;;;;;;;4.44;82.65;97691.53;4848201;29;20656;-86
2022/01/08 00:11:27;;;;;;;4.13;1.37;;;;;;;4.33;83.52;97680.91;4847066;29;20677;-85
2022/01/08 00:13:56;;;;;;;3.63;1.10;;;;;;;4.35;82.53;97667.94;4846601;29;20652;-86
2022/01/08 00:16:24;;;;;;;2.07;1.37;;;;;;;4.41;83.15;97667.63;4845275;29;21220;-85
2022/01/08 00:18:52;;;;;;;4.87;1.67;;;;;;;4.43;81.60;97664.03;4849500;29;21378;-85
2022/01/08 00:21:22;;;;;;;2.73;1.40;;;;;;;4.50;81.01;97657.66;4846954;29;20668;-85
2022/01/08 00:23:50;;;;;;;1.90;1.07;;;;;;;4.45;81.64;97651.91;4846452;29;21091;-86
2022/01/08 00:26:18;;;;;;;2.37;1.23;;;;;;;4.46;81.41;97650.16;4845219;29;21029;-86
2022/01/08 00:28:46;;;;;;;2.23;1.20;;;;;;;4.46;81.45;97644.97;4846715;29;20666;-85
2022/01/08 00:31:15;;;;;;;3.50;1.60;;;;;;;4.43;79.99;97639.97;4850553;29;20656;-85
2022/01/08 00:33:43;;;;;;;2.27;1.60;;;;;;;4.42;81.40;97631.41;4847545;29;21216;-85
2022/01/08 00:36:11;;;;;;;1.70;1.13;;;;;;;4.44;81.33;97627.00;4833272;29;20656;-85
2022/01/08 00:38:40;;;;;;;3.03;1.33;;;;;;;4.45;81.53;97633.84;4835197;29;20638;-85
2022/01/08 00:41:08;;;;;;;3.67;1.80;;;;;;;4.44;81.27;97619.25;4866594;29;21037;-86
2022/01/08 00:43:36;;;;;;;2.87;2.03;;;;;;;4.41;81.22;97616.00;4864199;29;21237;-86
2022/01/08 00:46:05;;;;;;;2.97;1.60;;;;;;;4.37;81.03;97614.47;4864997;29;20679;-85
2022/01/08 00:48:33;;;;;;;2.57;1.80;;;;;;;4.36;81.11;97605.91;4850683;29;21218;-85
2022/01/08 00:51:01;;;;;;;2.90;1.40;;;;;;;4.36;80.15;97608.50;4833778;29;20646;-86
2022/01/08 00:53:29;;;;;;;2.97;1.87;;;;;;;4.34;79.85;97610.31;4863381;29;20638;-85
2022/01/08 00:55:59;;;;;;;2.23;1.60;;;;;;;4.32;80.72;97608.72;4832819;29;20742;-85
2022/01/08 00:58:27;;;;;;;2.73;1.70;;;;;;;4.32;80.48;97599.22;4834862;29;20642;-85
2022/01/08 01:00:55;;;;;;;2.43;1.73;;;;;;;4.32;82.56;97582.94;4851315;29;21222;-85
2022/01/08 01:03:23;;;;;;;2.43;1.77;;;;;;;4.29;82.64;97585.66;4862584;29;20709;-85
2022/01/08 01:05:53;;;;;;;3.10;1.83;;;;;;;4.25;82.62;97579.84;4850724;29;20669;-85
2022/01/08 01:08:21;;;;;;;2.23;1.77;;;;;;;4.16;83.10;97578.63;4850283;29;20643;-85
2022/01/08 01:10:50;;;;;;;1.70;1.50;;;;;;;4.09;82.89;97582.44;4833901;29;21021;-85
2022/01/08 01:13:19;;;;;;;2.97;2.00;;;;;;;4.12;83.41;97592.59;4849192;29;20654;-85
2022/01/08 01:15:47;;;;;;;3.87;1.97;;;;;;;4.15;83.04;97584.69;4849829;29;20645;-85
2022/01/08 01:18:15;;;;;;;3.17;1.50;;;;;;;4.18;82.84;97593.13;4834149;29;20667;-85
2022/01/08 01:20:43;;;;;;;2.10;1.43;;;;;;;4.19;82.70;97592.19;4833401;29;20652;-85
2022/01/08 01:23:14;;;;;;;2.53;1.67;;;;;;;4.20;83.30;97576.63;4847267;29;20677;-84
2022/01/08 01:25:48;;;;;;;2.27;1.40;;;;;;;4.21;82.82;97567.19;4833391;29;20691;-84
2022/01/08 01:28:32;;;;;;;2.20;1.87;;;;;;;4.21;82.57;97562.03;4850933;29;20631;-84
2022/01/08 01:42:39;;;;;;;2.30;1.50;;;;;;;4.34;81.89;97534.63;4850628;29;20646;-84
2022/01/08 01:47:57;;;;;;;2.63;1.40;;;;;;;4.40;81.63;97540.31;4837378;29;20668;-84
2022/01/08 01:50:26;;;;;;;2.30;1.50;;;;;;;4.44;81.41;97534.06;4847959;29;20684;-84
2022/01/08 01:52:54;;;;;;;3.10;1.60;;;;;;;4.45;81.36;97522.84;4850135;29;20646;-84
2022/01/08 01:55:22;;;;;;;2.90;1.80;;;;;;;4.48;81.69;97520.09;4852871;29;20637;-84
2022/01/08 01:57:51;;;;;;;3.03;1.40;;;;;;;4.47;82.32;97513.25;4829793;29;20641;-84
2022/01/08 02:00:19;;;;;;;3.13;1.67;;;;;;;4.45;81.55;97499.63;4846760;29;20665;-83
2022/01/08 02:02:48;;;;;;;2.53;1.80;;;;;;;4.45;82.30;97501.34;4850149;29;21182;-84
2022/01/08 02:05:17;;;;;;;2.33;1.70;;;;;;;4.37;82.55;97490.59;4831986;29;21116;-84
2022/01/08 02:07:46;;;;;;;2.20;1.60;;;;;;;4.28;83.62;97470.47;4849951;29;20642;-85
2022/01/08 02:10:14;;;;;;;2.30;1.60;;;;;;;4.21;83.58;97472.53;4851406;29;21033;-84
2022/01/08 02:12:43;;;;;;;3.73;1.73;;;;;;;4.20;83.88;97474.38;4848230;29;21166;-84
2022/01/08 02:15:11;;;;;;;3.20;1.77;;;;;;;4.13;84.46;97458.38;4847225;29;20644;-84
2022/01/08 02:17:39;;;;;;;3.37;1.80;;;;;;;4.09;85.37;97448.28;4847436;29;20687;-84
2022/01/08 02:20:10;;;;;;;2.33;1.40;;;;;;;4.08;84.79;97441.50;4833547;29;20643;-84
2022/01/08 02:22:38;;;;;;;2.20;1.63;;;;;;;4.05;86.03;97428.75;4835177;29;22054;-84
2022/01/08 02:25:08;;;;;;;2.00;1.50;;;;;;;4.01;86.16;97412.59;4848749;29;20643;-84
2022/01/08 02:27:36;;;;;;;2.60;1.60;;;;;;;3.98;85.97;97409.34;4834427;29;21024;-84
2022/01/08 02:30:05;;;;;;;4.30;1.70;;;;;;;3.99;86.10;97401.53;4851411;29;21216;-84
2022/01/08 02:32:33;;;;;;;2.87;1.40;;;;;;;4.00;85.51;97402.34;4866996;29;20646;-84
2022/01/08 02:35:01;;;;;;;2.10;1.33;;;;;;;3.99;86.14;97405.88;4834161;29;21312;-84
2022/01/08 02:37:31;;;;;;;2.40;1.50;;;;;;;3.99;85.88;97400.72;4848923;29;21218;-84
2022/01/08 02:40:01;;;;;;;3.50;1.90;;;;;;;4.04;84.96;97398.72;4848450;29;20646;-84
2022/01/08 02:42:37;;;;;;;3.53;1.80;;;;;;;4.06;85.74;97396.88;4863016;29;20757;-84
2022/01/08 02:45:07;;;;;;;1.97;1.50;;;;;;;4.11;85.96;97392.31;4831189;29;20665;-84
2022/01/08 02:47:35;;;;;;;3.40;2.00;;;;;;;4.13;84.76;97385.31;4849848;29;20655;-84
2022/01/08 02:50:03;;;;;;;3.13;1.90;;;;;;;4.15;85.21;97378.31;4853023;29;20633;-84
2022/01/08 02:52:33;;;;;;;3.30;1.60;;;;;;;4.14;85.70;97363.78;4833789;29;21078;-84
2022/01/08 02:55:01;;;;;;;2.70;1.80;;;;;;;4.18;86.71;97365.25;4863833;29;20638;-84
2022/01/08 02:57:29;;;;;;;4.10;1.90;;;;;;;4.16;87.05;97365.34;4832477;29;21205;-85
2022/01/08 02:59:57;;;;;;;2.90;1.63;;;;;;;4.15;86.21;97352.53;4850409;29;21234;-84
2022/01/08 03:02:25;;;;;;;3.00;1.97;;;;;;;4.19;86.49;97357.44;4849952;29;20776;-84
2022/01/08 03:04:54;;;;;;;3.87;1.73;;;;;;;4.20;86.88;97344.44;4832018;29;20668;-85
2022/01/08 03:07:22;;;;;;;2.70;1.93;;;;;;;4.20;86.95;97344.44;4832802;29;20668;-84
2022/01/08 03:09:56;;;;;;;3.00;1.93;;;;;;;4.23;87.24;97339.13;4830491;29;20642;-85
2022/01/08 03:12:26;;;;;;;4.30;2.27;;;;;;;4.26;86.32;97333.78;4849603;29;20667;-84
2022/01/08 03:14:55;;;;;;;2.50;2.07;;;;;;;4.27;85.89;97319.97;4848903;29;20648;-84
2022/01/08 03:17:23;;;;;;;2.50;1.90;;;;;;;4.26;87.21;97312.31;4847386;29;21282;-84
2022/01/08 03:19:53;;;;;;;2.40;2.00;;;;;;;4.31;86.52;97311.13;4866951;29;20641;-84
2022/01/08 03:22:21;;;;;;;2.80;1.70;;;;;;;4.36;86.60;97313.44;4831903;29;20761;-85
2022/01/08 03:24:50;;;;;;;2.77;1.90;;;;;;;4.37;86.68;97307.38;4855138;29;20666;-84
2022/01/08 03:27:19;;;;;;;4.37;1.70;;;;;;;4.41;86.94;97296.81;4847350;29;20743;-84
2022/01/08 03:29:47;;;;;;;3.07;2.00;;;;;;;4.47;85.92;97300.78;4850632;29;20675;-84
2022/01/08 03:32:15;;;;;;;5.33;2.20;;;;;;;4.50;86.12;97291.13;4863039;29;20654;-84
2022/01/08 03:34:44;;;;;;;2.70;2.10;;;;;;;4.52;85.17;97291.84;4851440;29;20988;-84
2022/01/08 03:37:12;;;;;;;2.70;2.40;;;;;;;4.53;85.06;97296.09;4832642;29;21018;-84
2022/01/08 03:39:40;;;;;;;7.27;2.40;;;;;;;4.54;85.58;97295.19;4849522;29;20633;-84
2022/01/08 03:42:08;;;;;;;4.77;2.30;;;;;;;4.58;85.46;97288.09;4867362;29;20741;-85
2022/01/08 03:44:38;;;;;;;4.30;2.40;;;;;;;4.61;85.22;97291.31;4836347;29;20658;-84
2022/01/08 03:47:29;;;;;;;4.43;1.90;;;;;;;4.67;85.26;97282.41;4848139;29;20658;-84
2022/01/08 03:49:58;;;;;;;3.90;2.20;;;;;;;4.69;84.25;97273.63;4847190;29;20644;-84
2022/01/08 03:52:32;;;;;;;3.43;2.57;;;;;;;4.72;85.61;97276.03;4849048;29;20641;-84
2022/01/08 03:55:00;;;;;;;4.73;2.03;;;;;;;4.74;84.99;97269.03;4847549;29;21000;-86
2022/01/08 03:57:28;;;;;;;2.47;2.20;;;;;;;4.76;84.10;97275.75;4848185;29;20654;-86
2022/01/08 03:59:57;;;;;;;3.20;2.10;;;;;;;4.82;84.26;97283.16;4832125;29;20722;-86
2022/01/08 04:02:25;;;;;;;2.23;1.80;;;;;;;4.76;84.16;97278.34;4833484;29;21132;-86
2022/01/08 04:04:54;;;;;;;5.03;1.70;;;;;;;4.65;85.60;97274.75;4835953;29;21780;-84
2022/01/08 04:07:22;;;;;;;5.50;1.60;;;;;;;4.62;85.83;97277.50;4865313;29;20689;-84
2022/01/08 04:09:50;;;;;;;2.43;1.60;;;;;;;4.64;86.42;97278.25;4849512;29;22086;-84
2022/01/08 04:12:28;;;;;;;2.00;1.20;;;;;;;4.59;86.34;97276.88;4837418;29;21186;-85
2022/01/08 04:15:06;;;;;;;1.93;1.43;;;;;;;4.60;86.63;97274.19;4853351;29;20641;-84
2022/01/08 04:17:34;;;;;;;3.93;1.20;;;;;;;4.51;88.09;97271.28;4850688;29;20642;-84
2022/01/08 04:20:02;;;;;;;1.70;1.13;;;;;;;4.42;88.54;97270.09;4838205;29;20666;-84
2022/01/08 04:22:30;;;;;;;1.60;1.13;;;;;;;4.37;89.18;97289.31;4851847;29;20650;-84
2022/01/08 04:24:59;;;;;;;1.47;1.00;;;;;;;4.18;90.95;97267.22;4852290;29;21197;-84
2022/01/08 04:27:27;;;;;;;2.47;1.10;;;;;;;4.17;91.44;97270.75;4855562;29;20630;-84
2022/01/08 04:29:55;;;;;;;1.43;1.20;;;;;;;4.09;91.68;97276.34;4850378;29;21255;-84
2022/01/08 04:32:24;;;;;;;1.53;1.30;;;;;;;4.07;92.71;97283.31;4868041;29;20666;-84
2022/01/08 04:34:53;;;;;;;1.80;1.30;;;;;;;4.03;92.99;97294.72;4852576;29;20641;-85
2022/01/08 04:37:21;;;;;;;1.70;1.00;;;;;;;3.97;94.12;97289.06;4852053;29;20659;-84
2022/01/08 04:39:49;;;;;;;1.73;1.00;;;;;;;3.95;94.82;97296.88;4834998;29;20641;-84
2022/01/08 04:42:17;;;;;;;1.43;1.07;;;;;;;3.94;94.09;97299.53;4854120;29;21202;-84
2022/01/08 04:44:45;;;;;;;2.33;0.90;;;;;;;3.92;94.44;97288.47;4850737;29;21208;-85
2022/01/08 04:47:13;;;;;;;1.80;1.20;;;;;;;3.89;95.54;97294.66;4852226;29;20651;-85
2022/01/08 04:49:43;;;;;;;2.00;1.00;;;;;;;3.97;95.43;97304.53;4868730;29;20645;-85
2022/01/08 04:52:11;;;;;;;5.10;1.77;;;;;;;4.04;94.52;97303.28;4849184;29;20677;-84
2022/01/08 04:54:39;;;;;;;1.67;1.10;;;;;;;4.08;93.95;97289.31;4863739;29;21200;-84
2022/01/08 04:57:08;;;;;;;1.80;1.30;;;;;;;4.12;93.57;97301.94;4864838;29;20767;-84
2022/01/08 04:59:36;;;;;;;2.30;1.50;;;;;;;4.09;94.28;97307.28;4849016;29;20643;-84
2022/01/08 05:02:04;;;;;;;2.43;1.60;;;;;;;4.12;93.75;97309.69;4847188;29;20646;-85
2022/01/08 05:04:32;;;;;;;2.33;1.63;;;;;;;4.17;94.41;97306.84;4847252;29;20665;-84
2022/01/08 05:07:02;;;;;;;2.37;1.57;;;;;;;4.23;94.53;97318.47;4848114;29;20661;-85
2022/01/08 05:09:30;;;;;;;3.30;2.00;;;;;;;4.23;94.63;97315.91;4865836;29;20642;-84
2022/01/08 05:11:58;;;;;;;2.57;1.90;;;;;;;4.29;93.70;97307.81;4849479;29;20647;-84
2022/01/08 05:14:27;;;;;;;2.23;1.73;;;;;;;4.26;94.29;97320.88;4833593;29;20630;-84
2022/01/08 05:16:59;;;;;;;2.43;1.70;;;;;;;4.19;94.73;97326.47;4832016;29;20640;-84
2022/01/08 05:19:38;;;;;;;2.43;1.97;;;;;;;4.13;95.02;97326.00;4850067;29;20720;-84
2022/01/08 05:22:10;;;;;;;3.27;1.80;;;;;;;4.09;95.08;97340.81;4849371;29;21276;-84
2022/01/08 05:24:38;;;;;;;4.57;2.00;;;;;;;3.99;95.88;97334.47;4851972;29;20674;-85
2022/01/08 05:27:10;;;;;;;4.93;1.87;;;;;;;4.02;95.05;97343.81;4848804;29;21298;-84
2022/01/08 05:29:38;;;;;;;2.03;1.53;;;;;;;4.07;96.07;97352.94;4848173;29;20649;-84
2022/01/08 05:32:07;;;;;;;2.17;1.50;;;;;;;4.06;95.69;97350.44;4848965;29;20748;-84
2022/01/08 05:34:35;;;;;;;1.93;1.47;;;;;;;4.07;96.58;97358.09;4848239;29;20643;-84
2022/01/08 05:37:04;;;;;;;5.90;1.60;;;;;;;4.09;96.67;97361.44;4850099;29;21378;-84
2022/01/08 05:39:35;;;;;;;4.07;1.80;;;;;;;4.18;95.01;97360.94;4852096;29;20646;-84
2022/01/08 05:42:03;;;;;;;1.97;1.63;;;;;;;4.26;96.05;97385.41;4848464;29;21240;-84
2022/01/08 05:44:32;;;;;;;2.83;1.50;;;;;;;4.29;96.18;97381.81;4850601;29;20699;-84
2022/01/08 05:47:00;;;;;;;1.80;1.30;;;;;;;4.27;95.21;97387.06;4849377;29;20666;-84
2022/01/08 05:49:28;;;;;;;2.67;1.30;;;;;;;4.30;95.56;97392.06;4834276;29;21218;-84
2022/01/08 05:51:57;;;;;;;1.70;1.30;;;;;;;4.33;94.69;97386.72;4848224;29;20656;-84
2022/01/08 05:54:25;;;;;;;3.40;1.27;;;;;;;4.35;94.54;97402.94;4864031;29;20645;-84
2022/01/08 05:56:55;;;;;;;1.50;1.30;;;;;;;4.25;93.83;97406.97;4862925;29;20728;-84
2022/01/08 05:59:26;;;;;;;1.87;1.30;;;;;;;4.25;94.38;97417.28;4865905;29;20645;-84
2022/01/08 06:01:54;;;;;;;1.13;0.80;;;;;;;4.27;94.58;97412.03;4864917;29;20647;-84
2022/01/08 06:04:22;;;;;;;1.20;0.93;;;;;;;4.31;94.93;97423.84;4864805;29;20677;-84
2022/01/08 06:06:51;;;;;;;2.23;1.10;;;;;;;4.31;94.50;97421.25;4851079;29;20677;-84
2022/01/08 06:09:19;;;;;;;1.80;1.10;;;;;;;4.36;94.17;97429.56;4849081;29;20663;-84
2022/01/08 06:11:47;;;;;;;1.37;1.23;;;;;;;4.31;94.48;97431.59;4864535;29;20637;-84
2022/01/08 06:14:16;;;;;;;1.57;1.23;;;;;;;4.32;93.75;97436.66;4848688;29;20652;-84
2022/01/08 06:16:44;;;;;;;1.97;1.10;;;;;;;4.32;93.82;97443.59;4847702;29;20633;-84
2022/01/08 06:19:14;;;;;;;2.13;1.20;;;;;;;4.30;93.45;97453.13;4834602;29;20737;-84
2022/01/08 06:21:42;;;;;;;2.30;1.37;;;;;;;4.24;94.25;97448.34;4865108;29;21239;-84
2022/01/08 06:24:14;;;;;;;1.50;0.90;;;;;;;4.18;93.82;97458.13;4865230;29;20700;-84
2022/01/08 06:26:42;;;;;;;2.07;1.10;;;;;;;4.14;94.73;97462.63;4850256;29;21184;-84
2022/01/08 06:29:10;;;;;;;1.37;1.00;;;;;;;4.02;93.84;97472.78;4849351;29;20656;-84
2022/01/08 06:31:40;;;;;;;0.90;0.70;;;;;;;4.00;93.83;97488.31;4864235;29;21132;-84
2022/01/08 06:34:08;;;;;;;2.30;1.00;;;;;;;3.94;93.92;97486.06;4850719;29;20637;-84
2022/01/08 06:36:36;;;;;;;1.57;1.30;;;;;;;3.91;94.23;97500.84;4864354;29;20648;-84
2022/01/08 06:39:04;;;;;;;2.00;1.80;;;;;;;3.85;93.81;97522.63;4833963;29;20653;-84
2022/01/08 06:41:33;;;;;;;2.10;1.90;;;;;;;3.81;93.91;97530.59;4846569;29;21190;-84
2022/01/08 06:44:01;;;;;;;2.20;2.00;;;;;;;3.69;93.42;97533.81;4833567;29;20664;-84
2022/01/08 06:46:29;;;;;;;1.93;1.83;;;;;;;3.67;94.38;97553.69;4846626;29;20656;-84
2022/01/08 06:48:59;;;;;;;2.20;2.00;;;;;;;3.60;93.51;97557.47;4864063;29;20649;-84
2022/01/08 06:51:27;;;;;;;1.90;1.63;;;;;;;3.60;93.99;97572.91;4849240;29;20640;-84
2022/01/08 06:53:55;;;;;;;2.40;2.10;;;;;;;3.54;94.71;97573.22;4833345;29;20653;-84
2022/01/08 06:56:23;;;;;;;2.10;1.90;;;;;;;3.56;94.49;97586.84;4848805;29;20959;-84
2022/01/08 06:58:51;;;;;;;2.23;2.03;;;;;;;3.50;94.47;97605.22;4846950;29;20690;-84
2022/01/08 07:01:21;;;;;;;2.13;1.90;;;;;;;3.44;94.92;97602.94;4864130;29;21012;-84
2022/01/08 07:03:50;;;;;;;2.10;1.90;;;;;;;3.34;94.37;97624.06;4863398;29;20640;-84
2022/01/08 07:06:19;;;;;;;2.63;2.20;;;;;;;3.33;94.87;97619.81;4860150;29;20687;-84
2022/01/08 07:08:51;;;;;;;2.43;2.23;;;;;;;3.34;94.70;97640.34;4849317;29;20777;-84
2022/01/08 07:11:20;;;;;;;2.23;1.77;;;;;;;3.30;94.67;97640.56;4833331;29;20659;-84
2022/01/08 07:13:48;;;;;;;2.50;2.30;;;;;;;3.30;94.94;97649.13;4861996;29;20652;-84
2022/01/08 07:16:16;;;;;;;2.50;2.10;;;;;;;3.23;95.33;97664.09;4849687;29;20653;-84
2022/01/08 07:18:44;;;;;;;2.57;2.30;;;;;;;3.29;95.77;97669.81;4848568;29;20649;-84
2022/01/08 07:21:12;;;;;;;3.33;2.63;;;;;;;3.25;95.07;97686.31;4847006;29;21233;-84
2022/01/08 07:23:42;;;;;;;2.50;2.30;;;;;;;3.23;95.63;97690.69;4831317;29;20627;-84
2022/01/08 07:26:10;;;;;;;2.63;2.40;;;;;;;3.31;95.25;97694.59;4861171;29;20672;-84
2022/01/08 07:28:40;;;;;;;3.00;2.43;;;;;;;3.35;95.17;97710.75;4831304;29;20650;-83
2022/01/08 07:31:08;;;;;;;2.40;2.00;;;;;;;3.36;94.60;97715.00;4846983;29;22944;-84
2022/01/08 07:33:36;;;;;;;2.90;2.43;;;;;;;3.35;94.68;97708.16;4849131;29;20656;-84
2022/01/08 07:36:04;;;;;;;2.53;2.33;;;;;;;3.42;94.06;97737.91;4831840;29;20632;-84
2022/01/08 07:38:33;;;;;;;3.40;2.40;;;;;;;3.43;93.81;97745.56;4847661;29;20657;-83
2022/01/08 07:41:02;;;;;;;2.73;2.27;;;;;;;3.30;94.10;97752.16;4868364;29;20643;-84
2022/01/08 07:43:30;;;;;;;2.63;2.43;;;;;;;3.31;94.36;97768.47;4853380;29;21187;-84
2022/01/08 07:45:58;;;;;;;3.10;2.63;;;;;;;3.29;94.64;97773.72;4846027;29;21059;-84
2022/01/08 07:48:27;;;;;;;3.00;2.23;;;;;;;3.38;94.36;97777.59;4862800;29;20660;-84
2022/01/08 07:50:55;;;;;;;2.87;2.30;;;;;;;3.41;94.32;97773.16;4847770;29;20636;-84
2022/01/08 07:53:23;;;;;;;2.60;2.10;;;;;;;3.39;93.29;97790.41;4848913;29;20736;-84
2022/01/08 07:55:51;;;;;;;2.23;1.60;;;;;;;3.41;94.17;97803.22;4828465;29;20651;-84
2022/01/08 07:58:21;;;;;;;2.20;1.90;;;;;;;3.44;93.31;97814.25;4848905;29;20647;-84
2022/01/08 08:00:50;;;;;;;2.13;1.93;;;;;;;3.49;93.02;97826.94;4846244;29;20703;-84
2022/01/08 08:03:18;;;;;;;2.20;1.93;;;;;;;3.53;93.20;97828.44;4864442;29;20677;-84
2022/01/08 08:05:47;;;;;;;1.70;1.60;;;;;;;3.61;92.36;97842.66;4844633;29;21239;-84
2022/01/08 08:08:17;;;;;;;2.90;2.20;;;;;;;3.59;92.14;97843.63;4851555;29;20634;-84
2022/01/08 08:10:47;;;;;;;2.00;1.80;;;;;;;3.61;92.22;97847.81;4849930;29;20669;-84
2022/01/08 08:13:15;;;;;;;2.43;1.90;;;;;;;3.63;92.50;97858.88;4848094;29;20685;-84
2022/01/08 08:15:45;;;;;;;1.80;1.60;;;;;;;3.67;92.81;97857.00;4845437;29;20650;-84
2022/01/08 08:18:13;;;;;;;2.87;2.37;;;;;;;3.70;91.41;97867.19;4846976;29;21290;-84
2022/01/08 08:20:42;;;;;;;3.07;2.23;;;;;;;3.65;92.65;97863.97;4848287;29;20642;-84
2022/01/08 08:23:10;;;;;;;2.33;2.03;;;;;;;3.65;92.77;97869.97;4848806;29;20653;-84
2022/01/08 08:25:38;;;;;;;2.50;2.23;;;;;;;3.69;92.73;97886.16;4849970;29;20896;-84
2022/01/08 08:28:08;;;;;;;3.00;2.33;;;;;;;3.71;93.42;97890.31;4846721;29;21206;-85
2022/01/08 08:30:36;;;;;;;4.37;3.20;;;;;;;3.75;92.24;97886.69;4848849;29;21247;-84
2022/01/08 08:33:05;;;;;;;4.60;3.70;;;;;;;3.78;92.52;97894.31;4845428;29;20649;-84
2022/01/08 08:35:34;;;;;;;5.20;3.53;;;;;;;3.84;93.77;97901.75;4845882;29;21206;-84
2022/01/08 08:38:03;;;;;;;6.23;4.27;;;;;;;3.85;92.69;97900.88;4834527;29;20646;-85
2022/01/08 08:40:31;;;;;;;5.87;4.20;;;;;;;3.90;93.39;97904.06;4831926;29;20661;-84
2022/01/08 08:42:59;;;;;;;6.47;4.33;;;;;;;3.92;92.74;97908.22;4846219;29;20685;-83
2022/01/08 08:45:27;;;;;;;5.83;4.00;;;;;;;3.93;92.77;97914.25;4846833;29;20653;-84
2022/01/08 08:47:56;;;;;;;6.17;4.27;;;;;;;3.94;93.20;97913.31;4848837;29;21242;-84
2022/01/08 08:50:26;;;;;;;4.50;3.60;;;;;;;3.98;93.16;97922.59;4850665;29;20736;-84
2022/01/08 08:52:55;;;;;;;5.80;4.43;;;;;;;4.06;92.48;97920.50;4847825;29;20741;-84
2022/01/08 08:55:23;;;;;;;8.60;5.10;;;;;;;4.09;92.53;97930.69;4832541;29;20652;-83
2022/01/08 08:57:51;;;;;;;6.00;3.93;;;;;;;4.12;92.54;97935.69;4835772;29;20635;-84
2022/01/08 09:00:19;;;;;;;6.33;4.70;;;;;;;4.16;92.12;97934.66;4854978;29;20650;-84
2022/01/08 09:02:47;;;;;;;7.60;4.40;;;;;;;4.22;92.28;97935.22;4835398;29;20645;-84
2022/01/08 09:05:15;;;;;;;5.60;4.30;;;;;;;4.27;93.14;97939.25;4849011;29;20666;-84
2022/01/08 09:07:45;;;;;;;7.77;4.97;;;;;;;4.32;92.72;97946.78;4851181;29;20673;-84
2022/01/08 09:10:14;;;;;;;7.20;4.60;;;;;;;4.33;91.99;97945.88;4852879;29;20632;-84
2022/01/08 09:12:43;;;;;;;8.10;4.80;;;;;;;4.36;92.54;97949.16;4852700;29;20730;-84
2022/01/08 09:15:14;;;;;;;5.70;3.77;;;;;;;4.45;92.41;97953.91;4865125;29;20688;-84
2022/01/08 09:17:42;;;;;;;6.03;4.00;;;;;;;4.47;91.47;97954.66;4865292;29;20632;-84
2022/01/08 09:20:11;;;;;;;4.13;3.00;;;;;;;4.50;91.66;97951.94;4866832;29;21265;-84
2022/01/08 09:22:39;;;;;;;4.77;3.00;;;;;;;4.53;90.42;97962.13;4852331;29;21090;-84
2022/01/08 09:25:10;;;;;;;5.03;2.97;;;;;;;4.52;90.06;97963.00;4834678;29;20644;-84
2022/01/08 09:27:39;;;;;;;2.90;2.33;;;;;;;4.46;90.33;97959.91;4849779;29;21024;-84
2022/01/08 09:30:08;;;;;;;3.77;2.50;;;;;;;4.49;89.31;97968.31;4850107;29;20653;-84
2022/01/08 09:32:37;;;;;;;4.90;2.80;;;;;;;4.46;90.42;97963.31;4851025;29;21199;-83
2022/01/08 09:35:07;;;;;;;4.23;3.00;;;;;;;4.49;89.63;97970.91;4849919;29;20654;-84
2022/01/08 09:37:37;;;;;;;4.07;2.80;;;;;;;4.57;89.78;97967.97;4849860;29;20641;-83
2022/01/08 09:40:07;;;;;;;5.83;2.87;;;;;;;4.59;89.38;97972.16;4867626;29;20648;-83
2022/01/08 09:42:37;;;;;;;6.17;2.83;;;;;;;4.58;89.74;97974.81;4836449;29;20676;-83
2022/01/08 09:45:06;;;;;;;4.83;2.90;;;;;;;4.65;88.71;97977.03;4849742;29;20644;-85
2022/01/08 09:47:34;;;;;;;8.20;3.60;;;;;;;4.59;89.29;97981.66;4864314;29;20712;-84
2022/01/08 09:50:03;;;;;;;6.70;3.50;;;;;;;4.58;89.42;97982.56;4847796;29;20655;-86
2022/01/08 09:52:32;;;;;;;6.73;3.13;;;;;;;4.60;88.70;97976.44;4834471;29;20661;-86
2022/01/08 09:55:00;;;;;;;9.80;4.73;;;;;;;4.60;87.85;97979.00;4848335;29;20630;-87
2022/01/08 09:57:28;;;;;;;11.30;4.83;;;;;;;4.65;88.91;97981.38;4836478;29;20639;-86
2022/01/08 09:59:58;;;;;;;7.67;2.93;;;;;;;4.67;87.74;97995.88;4836078;29;20752;-85
2022/01/08 10:02:26;;;;;;;7.90;4.50;;;;;;;4.69;88.38;97994.03;4834110;29;20738;-84
2022/01/08 10:05:08;;;;;;;4.47;3.10;;;;;;;4.73;88.17;97993.00;4857430;29;20640;-85
2022/01/08 10:07:36;;;;;;;5.03;2.80;;;;;;;4.72;87.29;97989.59;4853747;29;20725;-84
2022/01/08 10:10:10;;;;;;;4.67;3.07;;;;;;;4.71;87.34;97995.66;4854758;29;20760;-86
2022/01/08 10:12:42;;;;;;;5.50;3.53;;;;;;;4.75;87.33;97998.91;4854965;29;20655;-85
2022/01/08 10:17:59;;;;;;;12.23;6.57;;;;;;;4.84;87.57;97998.50;4852641;29;21655;-85
2022/01/08 10:20:37;;;;;;;9.97;6.53;;;;;;;4.84;87.21;97995.91;4850821;29;20988;-83
2022/01/08 10:23:14;;;;;;;8.63;3.40;;;;;;;4.89;86.85;98007.72;4849986;29;20668;-84
2022/01/08 10:25:44;;;;;;;4.50;3.30;;;;;;;4.94;86.15;98002.31;4848914;29;20649;-83
2022/01/08 10:28:12;;;;;;;7.57;4.80;;;;;;;4.97;86.14;97997.00;4845843;29;20807;-83
2022/01/08 10:30:42;;;;;;;5.60;3.57;;;;;;;5.02;84.99;97993.31;4866006;29;20651;-83
2022/01/08 10:33:10;;;;;;;8.33;4.10;;;;;;;5.08;85.70;97992.16;4830724;29;20655;-83
2022/01/08 10:35:52;;;;;;;8.90;4.60;;;;;;;5.16;85.28;98001.22;4831060;29;20652;-84
2022/01/08 10:38:20;;;;;;;4.77;3.43;;;;;;;5.18;85.16;97997.63;4834968;29;20630;-84
2022/01/08 10:40:48;;;;;;;5.77;3.40;;;;;;;5.22;83.79;98001.75;4851424;29;21303;-84
2022/01/08 10:43:21;;;;;;;5.10;2.63;;;;;;;5.15;82.89;97990.03;4848809;29;20635;-84
2022/01/08 10:45:51;;;;;;;6.10;2.70;;;;;;;5.14;83.89;98003.88;4853181;29;20655;-84
2022/01/08 10:48:28;;;;;;;4.83;2.60;;;;;;;5.21;81.88;97997.50;4835489;29;20693;-84
2022/01/08 10:51:09;;;;;;;4.77;3.17;;;;;;;5.22;82.31;97995.75;4852068;29;20665;-84
2022/01/08 10:53:59;;;;;;;3.87;2.60;;;;;;;5.25;81.86;97996.44;4867195;29;20645;-84
2022/01/08 10:56:30;;;;;;;3.90;2.73;;;;;;;5.25;81.86;98000.78;4850191;29;20633;-84
2022/01/08 10:59:01;;;;;;;5.83;2.80;;;;;;;5.25;81.57;97993.03;4837168;29;21286;-84
2022/01/08 11:01:50;;;;;;;6.00;3.00;;;;;;;5.31;81.23;97996.13;4867277;29;20646;-84
2022/01/08 11:04:21;;;;;;;9.10;2.60;;;;;;;5.37;81.95;97998.41;4865227;29;20670;-84
2022/01/08 11:06:57;;;;;;;4.77;2.77;;;;;;;5.39;80.71;97993.19;4863705;29;20689;-84
2022/01/08 11:09:28;;;;;;;5.80;2.50;;;;;;;5.44;79.84;97993.78;4848622;29;21726;-84
2022/01/08 11:11:58;;;;;;;6.40;2.57;;;;;;;5.53;79.30;97986.38;4848835;29;20640;-84
2022/01/08 11:17:17;;;;;;;5.33;2.40;;;;;;;5.72;80.08;97984.56;4848324;29;20648;-84
2022/01/08 11:19:48;;;;;;;6.50;2.57;;;;;;;5.86;78.74;97982.13;4847650;29;21234;-84
2022/01/08 11:22:20;;;;;;;5.97;2.57;;;;;;;5.93;78.22;97980.91;4863759;29;20713;-84
2022/01/08 11:24:53;;;;;;;6.80;2.80;;;;;;;6.01;78.71;97983.91;4849126;29;21237;-84
2022/01/08 11:27:27;;;;;;;3.00;1.90;;;;;;;6.27;78.84;97974.72;4831819;29;22753;-84
2022/01/08 11:30:09;;;;;;;6.97;2.97;;;;;;;6.30;76.68;97971.97;4850742;29;20770;-84
2022/01/08 11:32:39;;;;;;;8.07;2.70;;;;;;;6.20;76.72;97970.75;4864789;29;20677;-84
2022/01/08 11:35:30;;;;;;;6.80;2.07;;;;;;;6.46;75.05;97961.59;4830048;29;20639;-84
2022/01/08 11:38:03;;;;;;;4.03;2.33;;;;;;;6.52;75.59;97956.91;4848372;29;20644;-84
2022/01/08 11:40:32;;;;;;;3.40;1.80;;;;;;;6.52;74.89;97956.91;4835430;29;20688;-84
2022/01/08 11:43:02;;;;;;;3.47;2.23;;;;;;;6.70;74.54;97950.72;4851319;29;21230;-85
2022/01/08 11:45:33;;;;;;;7.70;2.50;;;;;;;6.66;72.78;97950.06;4849327;29;20651;-84
2022/01/08 11:48:05;;;;;;;7.23;2.20;;;;;;;6.38;73.20;97949.06;4848325;29;20669;-84
2022/01/08 11:50:33;;;;;;;3.10;1.60;;;;;;;6.32;73.69;97941.63;4848005;29;20673;-84
2022/01/08 11:53:12;;;;;;;3.90;1.70;;;;;;;6.42;72.15;97941.97;4865375;29;20949;-84
2022/01/08 11:55:41;;;;;;;3.30;1.90;;;;;;;6.42;71.96;97941.97;4844320;29;20623;-84
2022/01/08 11:58:17;;;;;;;3.83;1.60;;;;;;;6.29;72.19;97939.19;4848892;29;20636;-84
2022/01/08 12:00:51;;;;;;;4.30;1.83;;;;;;;6.16;71.80;97935.63;4850483;29;21099;-85
2022/01/08 12:03:40;;;;;;;4.07;1.80;;;;;;;6.06;70.44;97936.19;4861825;29;21203;-86
2022/01/08 12:06:33;;;;;;;4.20;1.70;;;;;;;6.20;70.39;97933.69;4862603;29;21087;-85
2022/01/08 12:09:17;;;;;;;5.53;1.97;;;;;;;6.28;70.21;97934.09;4865780;29;21102;-85
2022/01/08 12:11:56;;;;;;;5.73;1.73;;;;;;;6.23;71.76;97921.41;4847899;29;20641;-85
2022/01/08 12:14:26;;;;;;;2.70;1.87;;;;;;;6.23;72.39;97921.41;4846851;29;20648;-85